sensor_id;sensor_type;location;lat;lon;timestamp;P1;durP1;ratioP1;P2;durP2;ratioP2
82163;SDS011;71736;38.734;-9.138;2023-09-30T00:00:46;9.60;;;4.30;;
82163;SDS011;71736;38.734;-9.138;2023-09-30T00:03:12;4.70;;;3.00;;
82163;SDS011;71736;38.734;-9.138;2023-09-30T00:05:37;5.10;;;3.10;;
82163;SDS011;71736;38.734;-9.138;2023-09-30T00:08:04;7.00;;;3.30;;
82163;SDS011;71736;38.734;-9.138;2023-09-30T00:10:30;6.20;;;3.10;;
82163;SDS011;71736;38.734;-9.138;2023-09-30T00:12:56;6.80;;;3.70;;
82163;SDS011;71736;38.734;-9.138;2023-09-30T00:15:22;5.40;;;2.90;;
82163;SDS011;71736;38.734;-9.138;2023-09-30T00:17:48;6.00;;;3.20;;
82163;SDS011;71736;38.734;-9.138;2023-09-30T00:20:13;7.00;;;3.60;;
82163;SDS011;71736;38.734;-9.138;2023-09-30T00:22:42;7.20;;;3.20;;
82163;SDS011;71736;38.734;-9.138;2023-09-30T00:25:08;7.40;;;3.30;;
82163;SDS011;71736;38.734;-9.138;2023-09-30T00:27:35;5.60;;;2.90;;
82163;SDS011;71736;38.734;-9.138;2023-09-30T00:30:01;4.50;;;2.90;;
82163;SDS011;71736;38.734;-9.138;2023-09-30T00:32:28;5.20;;;2.50;;
82163;SDS011;71736;38.734;-9.138;2023-09-30T00:34:53;5.80;;;2.70;;
82163;SDS011;71736;38.734;-9.138;2023-09-30T00:37:19;5.80;;;3.50;;
82163;SDS011;71736;38.734;-9.138;2023-09-30T00:39:45;5.40;;;2.80;;
82163;SDS011;71736;38.734;-9.138;2023-09-30T00:42:10;6.80;;;3.60;;
82163;SDS011;71736;38.734;-9.138;2023-09-30T00:44:36;6.10;;;2.70;;
82163;SDS011;71736;38.734;-9.138;2023-09-30T00:47:01;5.50;;;3.30;;
82163;SDS011;71736;38.734;-9.138;2023-09-30T00:49:27;7.40;;;3.60;;
82163;SDS011;71736;38.734;-9.138;2023-09-30T00:54:19;5.40;;;2.80;;
82163;SDS011;71736;38.734;-9.138;2023-09-30T00:56:46;6.00;;;3.00;;
82163;SDS011;71736;38.734;-9.138;2023-09-30T00:59:13;5.20;;;3.10;;
82163;SDS011;71736;38.734;-9.138;2023-09-30T01:01:40;6.70;;;3.00;;
82163;SDS011;71736;38.734;-9.138;2023-09-30T01:04:09;5.80;;;3.00;;
82163;SDS011;71736;38.734;-9.138;2023-09-30T01:06:36;4.70;;;2.90;;
82163;SDS011;71736;38.734;-9.138;2023-09-30T01:09:02;5.90;;;2.80;;
82163;SDS011;71736;38.734;-9.138;2023-09-30T01:11:28;5.50;;;2.90;;
82163;SDS011;71736;38.734;-9.138;2023-09-30T01:13:54;5.80;;;3.10;;
82163;SDS011;71736;38.734;-9.138;2023-09-30T01:18:46;4.70;;;3.00;;
82163;SDS011;71736;38.734;-9.138;2023-09-30T01:21:12;7.00;;;3.30;;
82163;SDS011;71736;38.734;-9.138;2023-09-30T01:23:37;9.70;;;3.50;;
82163;SDS011;71736;38.734;-9.138;2023-09-30T01:26:10;5.10;;;2.90;;
82163;SDS011;71736;38.734;-9.138;2023-09-30T01:28:40;7.10;;;3.10;;
82163;SDS011;71736;38.734;-9.138;2023-09-30T01:31:06;5.30;;;2.80;;
82163;SDS011;71736;38.734;-9.138;2023-09-30T01:33:32;4.70;;;2.90;;
82163;SDS011;71736;38.734;-9.138;2023-09-30T01:35:58;7.10;;;2.90;;
82163;SDS011;71736;38.734;-9.138;2023-09-30T01:38:24;7.10;;;3.00;;
82163;SDS011;71736;38.734;-9.138;2023-09-30T01:40:50;6.10;;;3.20;;
82163;SDS011;71736;38.734;-9.138;2023-09-30T01:43:16;9.40;;;3.30;;
82163;SDS011;71736;38.734;-9.138;2023-09-30T01:45:42;6.60;;;3.20;;
82163;SDS011;71736;38.734;-9.138;2023-09-30T01:48:08;6.00;;;2.60;;
82163;SDS011;71736;38.734;-9.138;2023-09-30T01:50:37;4.70;;;2.80;;
82163;SDS011;71736;38.734;-9.138;2023-09-30T01:53:06;7.70;;;3.00;;
82163;SDS011;71736;38.734;-9.138;2023-09-30T01:55:35;4.60;;;2.70;;
82163;SDS011;71736;38.734;-9.138;2023-09-30T01:58:01;5.90;;;3.40;;
82163;SDS011;71736;38.734;-9.138;2023-09-30T02:00:27;5.00;;;3.20;;
82163;SDS011;71736;38.734;-9.138;2023-09-30T02:02:55;7.60;;;3.50;;
82163;SDS011;71736;38.734;-9.138;2023-09-30T02:05:22;5.40;;;3.70;;
82163;SDS011;71736;38.734;-9.138;2023-09-30T02:07:48;5.80;;;3.40;;
82163;SDS011;71736;38.734;-9.138;2023-09-30T02:10:15;5.40;;;2.70;;
82163;SDS011;71736;38.734;-9.138;2023-09-30T02:12:44;6.40;;;3.00;;
82163;SDS011;71736;38.734;-9.138;2023-09-30T02:15:10;5.20;;;2.90;;
82163;SDS011;71736;38.734;-9.138;2023-09-30T02:20:02;4.90;;;3.00;;
82163;SDS011;71736;38.734;-9.138;2023-09-30T02:22:32;5.00;;;2.70;;
82163;SDS011;71736;38.734;-9.138;2023-09-30T02:24:58;6.50;;;3.20;;
82163;SDS011;71736;38.734;-9.138;2023-09-30T02:27:24;6.70;;;3.20;;
82163;SDS011;71736;38.734;-9.138;2023-09-30T02:29:49;5.70;;;3.20;;
82163;SDS011;71736;38.734;-9.138;2023-09-30T02:32:16;7.40;;;3.10;;
82163;SDS011;71736;38.734;-9.138;2023-09-30T02:34:42;5.20;;;2.90;;
82163;SDS011;71736;38.734;-9.138;2023-09-30T02:37:08;6.90;;;3.40;;
82163;SDS011;71736;38.734;-9.138;2023-09-30T02:39:35;6.80;;;3.50;;
82163;SDS011;71736;38.734;-9.138;2023-09-30T02:42:02;7.60;;;3.40;;
82163;SDS011;71736;38.734;-9.138;2023-09-30T02:44:28;6.90;;;3.20;;
82163;SDS011;71736;38.734;-9.138;2023-09-30T02:46:53;10.30;;;3.30;;
82163;SDS011;71736;38.734;-9.138;2023-09-30T02:49:19;7.30;;;3.40;;
82163;SDS011;71736;38.734;-9.138;2023-09-30T02:51:44;7.00;;;3.30;;
82163;SDS011;71736;38.734;-9.138;2023-09-30T02:54:09;6.30;;;3.40;;
82163;SDS011;71736;38.734;-9.138;2023-09-30T02:56:40;5.30;;;2.90;;
82163;SDS011;71736;38.734;-9.138;2023-09-30T02:59:06;7.00;;;2.90;;
82163;SDS011;71736;38.734;-9.138;2023-09-30T03:01:32;7.40;;;3.60;;
82163;SDS011;71736;38.734;-9.138;2023-09-30T03:03:58;5.20;;;3.20;;
82163;SDS011;71736;38.734;-9.138;2023-09-30T03:06:23;8.20;;;3.30;;
82163;SDS011;71736;38.734;-9.138;2023-09-30T03:08:49;5.10;;;3.00;;
82163;SDS011;71736;38.734;-9.138;2023-09-30T03:11:14;5.90;;;3.30;;
82163;SDS011;71736;38.734;-9.138;2023-09-30T03:13:40;6.80;;;3.20;;
82163;SDS011;71736;38.734;-9.138;2023-09-30T03:16:07;8.40;;;3.50;;
82163;SDS011;71736;38.734;-9.138;2023-09-30T03:18:34;5.10;;;3.00;;
82163;SDS011;71736;38.734;-9.138;2023-09-30T03:21:00;6.90;;;3.10;;
82163;SDS011;71736;38.734;-9.138;2023-09-30T03:23:27;7.70;;;3.30;;
82163;SDS011;71736;38.734;-9.138;2023-09-30T03:25:58;5.80;;;3.60;;
82163;SDS011;71736;38.734;-9.138;2023-09-30T03:28:24;6.30;;;3.20;;
82163;SDS011;71736;38.734;-9.138;2023-09-30T03:30:50;5.50;;;3.70;;
82163;SDS011;71736;38.734;-9.138;2023-09-30T03:33:15;6.30;;;2.90;;
82163;SDS011;71736;38.734;-9.138;2023-09-30T03:38:07;6.30;;;3.60;;
82163;SDS011;71736;38.734;-9.138;2023-09-30T03:40:35;6.50;;;3.30;;
82163;SDS011;71736;38.734;-9.138;2023-09-30T03:43:03;6.90;;;3.50;;
82163;SDS011;71736;38.734;-9.138;2023-09-30T03:45:30;6.60;;;3.30;;
82163;SDS011;71736;38.734;-9.138;2023-09-30T03:48:00;6.10;;;3.40;;
82163;SDS011;71736;38.734;-9.138;2023-09-30T03:50:27;6.30;;;3.40;;
82163;SDS011;71736;38.734;-9.138;2023-09-30T03:53:00;7.80;;;3.50;;
82163;SDS011;71736;38.734;-9.138;2023-09-30T03:55:27;6.80;;;3.10;;
82163;SDS011;71736;38.734;-9.138;2023-09-30T03:57:55;5.50;;;3.20;;
82163;SDS011;71736;38.734;-9.138;2023-09-30T04:00:20;6.80;;;3.40;;
82163;SDS011;71736;38.734;-9.138;2023-09-30T04:02:46;5.80;;;3.60;;
82163;SDS011;71736;38.734;-9.138;2023-09-30T04:05:19;6.40;;;3.30;;
82163;SDS011;71736;38.734;-9.138;2023-09-30T04:07:51;6.50;;;3.10;;
82163;SDS011;71736;38.734;-9.138;2023-09-30T04:10:16;6.50;;;3.50;;
82163;SDS011;71736;38.734;-9.138;2023-09-30T04:12:43;6.80;;;3.20;;
82163;SDS011;71736;38.734;-9.138;2023-09-30T04:15:08;4.80;;;3.60;;
82163;SDS011;71736;38.734;-9.138;2023-09-30T04:17:37;7.40;;;3.60;;
82163;SDS011;71736;38.734;-9.138;2023-09-30T04:20:07;5.50;;;3.60;;
82163;SDS011;71736;38.734;-9.138;2023-09-30T04:22:41;5.20;;;3.30;;
82163;SDS011;71736;38.734;-9.138;2023-09-30T04:25:07;7.30;;;3.80;;
82163;SDS011;71736;38.734;-9.138;2023-09-30T04:27:36;6.40;;;3.40;;
82163;SDS011;71736;38.734;-9.138;2023-09-30T04:30:02;9.10;;;4.30;;
82163;SDS011;71736;38.734;-9.138;2023-09-30T04:32:34;9.00;;;3.60;;
82163;SDS011;71736;38.734;-9.138;2023-09-30T04:35:02;6.40;;;4.00;;
82163;SDS011;71736;38.734;-9.138;2023-09-30T04:37:29;5.90;;;3.50;;
82163;SDS011;71736;38.734;-9.138;2023-09-30T04:39:54;6.60;;;3.50;;
82163;SDS011;71736;38.734;-9.138;2023-09-30T04:42:20;8.50;;;3.50;;
82163;SDS011;71736;38.734;-9.138;2023-09-30T04:44:45;6.80;;;3.60;;
82163;SDS011;71736;38.734;-9.138;2023-09-30T04:47:12;7.30;;;3.20;;
82163;SDS011;71736;38.734;-9.138;2023-09-30T04:49:37;6.60;;;3.80;;
82163;SDS011;71736;38.734;-9.138;2023-09-30T04:52:03;7.20;;;3.40;;
82163;SDS011;71736;38.734;-9.138;2023-09-30T04:54:32;6.60;;;3.60;;
82163;SDS011;71736;38.734;-9.138;2023-09-30T04:57:00;5.80;;;3.30;;
82163;SDS011;71736;38.734;-9.138;2023-09-30T04:59:27;8.60;;;3.40;;
82163;SDS011;71736;38.734;-9.138;2023-09-30T05:01:53;6.00;;;3.00;;
82163;SDS011;71736;38.734;-9.138;2023-09-30T05:04:19;6.20;;;3.10;;
82163;SDS011;71736;38.734;-9.138;2023-09-30T05:06:45;8.70;;;3.70;;
82163;SDS011;71736;38.734;-9.138;2023-09-30T05:09:10;9.90;;;4.00;;
82163;SDS011;71736;38.734;-9.138;2023-09-30T05:14:02;6.50;;;4.10;;
82163;SDS011;71736;38.734;-9.138;2023-09-30T05:16:30;6.40;;;4.10;;
82163;SDS011;71736;38.734;-9.138;2023-09-30T05:18:56;7.20;;;4.10;;
82163;SDS011;71736;38.734;-9.138;2023-09-30T05:21:22;8.60;;;4.30;;
82163;SDS011;71736;38.734;-9.138;2023-09-30T05:23:48;11.10;;;4.20;;
82163;SDS011;71736;38.734;-9.138;2023-09-30T05:26:14;10.20;;;4.20;;
82163;SDS011;71736;38.734;-9.138;2023-09-30T05:28:40;10.10;;;5.30;;
82163;SDS011;71736;38.734;-9.138;2023-09-30T05:31:07;9.50;;;4.80;;
82163;SDS011;71736;38.734;-9.138;2023-09-30T05:33:33;7.90;;;4.10;;
82163;SDS011;71736;38.734;-9.138;2023-09-30T05:36:00;10.60;;;5.20;;
82163;SDS011;71736;38.734;-9.138;2023-09-30T05:38:27;9.80;;;4.70;;
82163;SDS011;71736;38.734;-9.138;2023-09-30T05:40:54;7.70;;;4.70;;
82163;SDS011;71736;38.734;-9.138;2023-09-30T05:43:20;9.20;;;4.80;;
82163;SDS011;71736;38.734;-9.138;2023-09-30T05:45:46;8.70;;;5.10;;
82163;SDS011;71736;38.734;-9.138;2023-09-30T05:48:20;8.80;;;4.90;;
82163;SDS011;71736;38.734;-9.138;2023-09-30T05:50:46;9.20;;;5.30;;
82163;SDS011;71736;38.734;-9.138;2023-09-30T05:53:12;9.40;;;5.10;;
82163;SDS011;71736;38.734;-9.138;2023-09-30T05:55:38;8.70;;;4.50;;
82163;SDS011;71736;38.734;-9.138;2023-09-30T05:58:06;10.90;;;5.10;;
82163;SDS011;71736;38.734;-9.138;2023-09-30T06:00:32;9.50;;;4.90;;
82163;SDS011;71736;38.734;-9.138;2023-09-30T06:03:00;9.80;;;4.70;;
82163;SDS011;71736;38.734;-9.138;2023-09-30T06:05:27;8.80;;;5.20;;
82163;SDS011;71736;38.734;-9.138;2023-09-30T06:07:55;7.80;;;4.60;;
82163;SDS011;71736;38.734;-9.138;2023-09-30T06:10:21;8.20;;;4.60;;
82163;SDS011;71736;38.734;-9.138;2023-09-30T06:12:47;10.60;;;4.60;;
82163;SDS011;71736;38.734;-9.138;2023-09-30T06:17:40;8.70;;;4.90;;
82163;SDS011;71736;38.734;-9.138;2023-09-30T06:20:06;11.10;;;5.60;;
82163;SDS011;71736;38.734;-9.138;2023-09-30T06:22:41;7.00;;;5.10;;
82163;SDS011;71736;38.734;-9.138;2023-09-30T06:25:09;10.30;;;5.20;;
82163;SDS011;71736;38.734;-9.138;2023-09-30T06:30:00;9.90;;;4.90;;
82163;SDS011;71736;38.734;-9.138;2023-09-30T06:32:26;9.00;;;4.70;;
82163;SDS011;71736;38.734;-9.138;2023-09-30T06:34:51;8.40;;;4.50;;
82163;SDS011;71736;38.734;-9.138;2023-09-30T06:37:18;8.80;;;5.50;;
82163;SDS011;71736;38.734;-9.138;2023-09-30T06:39:43;8.70;;;4.60;;
82163;SDS011;71736;38.734;-9.138;2023-09-30T06:42:09;11.60;;;4.70;;
82163;SDS011;71736;38.734;-9.138;2023-09-30T06:44:34;9.50;;;5.00;;
82163;SDS011;71736;38.734;-9.138;2023-09-30T06:47:00;7.50;;;4.50;;
82163;SDS011;71736;38.734;-9.138;2023-09-30T06:49:26;7.80;;;5.30;;
82163;SDS011;71736;38.734;-9.138;2023-09-30T06:51:51;7.00;;;4.20;;
82163;SDS011;71736;38.734;-9.138;2023-09-30T06:54:17;8.10;;;4.90;;
82163;SDS011;71736;38.734;-9.138;2023-09-30T06:56:42;8.40;;;5.00;;
82163;SDS011;71736;38.734;-9.138;2023-09-30T06:59:08;11.90;;;5.40;;
82163;SDS011;71736;38.734;-9.138;2023-09-30T07:01:33;11.40;;;6.40;;
82163;SDS011;71736;38.734;-9.138;2023-09-30T07:03:59;9.20;;;5.70;;
82163;SDS011;71736;38.734;-9.138;2023-09-30T07:06:24;8.60;;;6.00;;
82163;SDS011;71736;38.734;-9.138;2023-09-30T07:08:50;10.00;;;5.60;;
82163;SDS011;71736;38.734;-9.138;2023-09-30T07:11:16;10.00;;;5.50;;
82163;SDS011;71736;38.734;-9.138;2023-09-30T07:13:42;9.10;;;5.20;;
82163;SDS011;71736;38.734;-9.138;2023-09-30T07:16:08;8.60;;;4.80;;
82163;SDS011;71736;38.734;-9.138;2023-09-30T07:18:33;8.80;;;5.70;;
82163;SDS011;71736;38.734;-9.138;2023-09-30T07:20:58;10.10;;;5.70;;
82163;SDS011;71736;38.734;-9.138;2023-09-30T07:23:24;10.30;;;5.50;;
82163;SDS011;71736;38.734;-9.138;2023-09-30T07:25:49;10.30;;;5.40;;
82163;SDS011;71736;38.734;-9.138;2023-09-30T07:28:15;7.70;;;4.70;;
82163;SDS011;71736;38.734;-9.138;2023-09-30T07:30:40;11.20;;;5.70;;
82163;SDS011;71736;38.734;-9.138;2023-09-30T07:33:06;7.50;;;4.60;;
82163;SDS011;71736;38.734;-9.138;2023-09-30T07:35:32;13.50;;;7.60;;
82163;SDS011;71736;38.734;-9.138;2023-09-30T07:37:58;12.00;;;5.40;;
82163;SDS011;71736;38.734;-9.138;2023-09-30T07:40:23;11.30;;;5.80;;
82163;SDS011;71736;38.734;-9.138;2023-09-30T07:42:49;9.40;;;5.80;;
82163;SDS011;71736;38.734;-9.138;2023-09-30T07:45:15;11.80;;;6.40;;
82163;SDS011;71736;38.734;-9.138;2023-09-30T07:47:45;8.20;;;5.10;;
82163;SDS011;71736;38.734;-9.138;2023-09-30T07:50:11;7.70;;;6.20;;
82163;SDS011;71736;38.734;-9.138;2023-09-30T07:52:38;7.80;;;5.90;;
82163;SDS011;71736;38.734;-9.138;2023-09-30T07:55:04;11.10;;;5.60;;
82163;SDS011;71736;38.734;-9.138;2023-09-30T07:57:30;8.50;;;5.50;;
82163;SDS011;71736;38.734;-9.138;2023-09-30T07:59:56;9.90;;;6.00;;
82163;SDS011;71736;38.734;-9.138;2023-09-30T08:02:21;11.70;;;6.10;;
82163;SDS011;71736;38.734;-9.138;2023-09-30T08:04:47;10.70;;;5.70;;
82163;SDS011;71736;38.734;-9.138;2023-09-30T08:07:13;8.90;;;6.30;;
82163;SDS011;71736;38.734;-9.138;2023-09-30T08:09:38;9.20;;;5.70;;
82163;SDS011;71736;38.734;-9.138;2023-09-30T08:12:04;10.40;;;6.20;;
82163;SDS011;71736;38.734;-9.138;2023-09-30T08:14:31;9.80;;;6.20;;
82163;SDS011;71736;38.734;-9.138;2023-09-30T08:16:57;10.80;;;6.30;;
82163;SDS011;71736;38.734;-9.138;2023-09-30T08:19:22;9.60;;;6.10;;
82163;SDS011;71736;38.734;-9.138;2023-09-30T08:21:48;12.40;;;6.30;;
82163;SDS011;71736;38.734;-9.138;2023-09-30T08:24:14;9.30;;;6.10;;
82163;SDS011;71736;38.734;-9.138;2023-09-30T08:26:39;11.20;;;5.90;;
82163;SDS011;71736;38.734;-9.138;2023-09-30T08:29:05;10.30;;;6.00;;
82163;SDS011;71736;38.734;-9.138;2023-09-30T08:31:31;12.10;;;6.90;;
82163;SDS011;71736;38.734;-9.138;2023-09-30T08:36:23;10.60;;;6.00;;
82163;SDS011;71736;38.734;-9.138;2023-09-30T08:38:50;11.00;;;6.00;;
82163;SDS011;71736;38.734;-9.138;2023-09-30T08:41:31;12.40;;;6.40;;
82163;SDS011;71736;38.734;-9.138;2023-09-30T08:44:02;10.40;;;6.40;;
82163;SDS011;71736;38.734;-9.138;2023-09-30T08:46:32;10.90;;;6.90;;
82163;SDS011;71736;38.734;-9.138;2023-09-30T08:49:02;12.40;;;8.00;;
82163;SDS011;71736;38.734;-9.138;2023-09-30T08:51:30;9.90;;;7.00;;
82163;SDS011;71736;38.734;-9.138;2023-09-30T08:53:56;9.70;;;6.80;;
82163;SDS011;71736;38.734;-9.138;2023-09-30T08:56:24;10.60;;;6.70;;
82163;SDS011;71736;38.734;-9.138;2023-09-30T08:58:57;11.20;;;7.00;;
82163;SDS011;71736;38.734;-9.138;2023-09-30T09:01:24;9.80;;;6.70;;
82163;SDS011;71736;38.734;-9.138;2023-09-30T09:03:51;14.00;;;7.00;;
82163;SDS011;71736;38.734;-9.138;2023-09-30T09:06:18;11.40;;;6.70;;
82163;SDS011;71736;38.734;-9.138;2023-09-30T09:08:47;9.40;;;7.00;;
82163;SDS011;71736;38.734;-9.138;2023-09-30T09:11:13;11.20;;;6.80;;
82163;SDS011;71736;38.734;-9.138;2023-09-30T09:16:15;11.70;;;7.00;;
82163;SDS011;71736;38.734;-9.138;2023-09-30T09:18:43;9.30;;;6.30;;
82163;SDS011;71736;38.734;-9.138;2023-09-30T09:21:12;9.20;;;7.50;;
82163;SDS011;71736;38.734;-9.138;2023-09-30T09:23:56;9.90;;;7.30;;
82163;SDS011;71736;38.734;-9.138;2023-09-30T09:26:26;10.70;;;6.80;;
82163;SDS011;71736;38.734;-9.138;2023-09-30T09:28:56;11.50;;;7.50;;
82163;SDS011;71736;38.734;-9.138;2023-09-30T09:31:24;11.80;;;6.90;;
82163;SDS011;71736;38.734;-9.138;2023-09-30T09:33:51;11.10;;;5.80;;
82163;SDS011;71736;38.734;-9.138;2023-09-30T09:36:18;10.60;;;6.70;;
82163;SDS011;71736;38.734;-9.138;2023-09-30T09:38:45;9.90;;;7.20;;
82163;SDS011;71736;38.734;-9.138;2023-09-30T09:41:18;7.70;;;5.10;;
82163;SDS011;71736;38.734;-9.138;2023-09-30T09:43:43;11.70;;;5.50;;
82163;SDS011;71736;38.734;-9.138;2023-09-30T09:46:09;9.30;;;6.60;;
82163;SDS011;71736;38.734;-9.138;2023-09-30T09:48:37;9.80;;;5.90;;
82163;SDS011;71736;38.734;-9.138;2023-09-30T09:51:05;10.60;;;6.90;;
82163;SDS011;71736;38.734;-9.138;2023-09-30T09:53:35;11.30;;;6.60;;
82163;SDS011;71736;38.734;-9.138;2023-09-30T09:56:02;10.50;;;7.60;;
82163;SDS011;71736;38.734;-9.138;2023-09-30T09:58:29;10.30;;;6.80;;
82163;SDS011;71736;38.734;-9.138;2023-09-30T10:00:59;11.20;;;6.10;;
82163;SDS011;71736;38.734;-9.138;2023-09-30T10:03:26;8.00;;;5.80;;
82163;SDS011;71736;38.734;-9.138;2023-09-30T10:05:52;8.70;;;5.70;;
82163;SDS011;71736;38.734;-9.138;2023-09-30T10:10:44;8.30;;;6.00;;
82163;SDS011;71736;38.734;-9.138;2023-09-30T10:13:49;8.70;;;4.80;;
82163;SDS011;71736;38.734;-9.138;2023-09-30T10:21:37;11.10;;;5.60;;
82163;SDS011;71736;38.734;-9.138;2023-09-30T10:35:18;12.70;;;5.80;;
82163;SDS011;71736;38.734;-9.138;2023-09-30T10:40:49;8.70;;;5.60;;
82163;SDS011;71736;38.734;-9.138;2023-09-30T10:48:51;11.20;;;5.60;;
82163;SDS011;71736;38.734;-9.138;2023-09-30T10:51:17;12.10;;;5.90;;
82163;SDS011;71736;38.734;-9.138;2023-09-30T10:53:48;10.60;;;6.40;;
82163;SDS011;71736;38.734;-9.138;2023-09-30T10:56:17;10.10;;;6.30;;
82163;SDS011;71736;38.734;-9.138;2023-09-30T10:58:45;14.30;;;6.20;;
82163;SDS011;71736;38.734;-9.138;2023-09-30T11:01:15;11.30;;;6.50;;
82163;SDS011;71736;38.734;-9.138;2023-09-30T11:03:44;12.50;;;6.60;;
82163;SDS011;71736;38.734;-9.138;2023-09-30T11:06:12;12.80;;;6.60;;
82163;SDS011;71736;38.734;-9.138;2023-09-30T11:08:44;9.20;;;6.80;;
82163;SDS011;71736;38.734;-9.138;2023-09-30T11:11:18;9.60;;;6.20;;
82163;SDS011;71736;38.734;-9.138;2023-09-30T11:13:44;8.90;;;5.80;;
82163;SDS011;71736;38.734;-9.138;2023-09-30T11:18:35;9.30;;;6.40;;
82163;SDS011;71736;38.734;-9.138;2023-09-30T11:21:07;13.20;;;7.90;;
82163;SDS011;71736;38.734;-9.138;2023-09-30T11:23:34;9.10;;;5.30;;
82163;SDS011;71736;38.734;-9.138;2023-09-30T11:26:00;8.30;;;5.00;;
82163;SDS011;71736;38.734;-9.138;2023-09-30T11:28:34;10.00;;;5.50;;
82163;SDS011;71736;38.734;-9.138;2023-09-30T11:31:12;7.90;;;5.00;;
82163;SDS011;71736;38.734;-9.138;2023-09-30T11:36:16;6.60;;;4.30;;
82163;SDS011;71736;38.734;-9.138;2023-09-30T11:38:46;7.50;;;4.70;;
82163;SDS011;71736;38.734;-9.138;2023-09-30T11:41:13;7.40;;;4.70;;
82163;SDS011;71736;38.734;-9.138;2023-09-30T11:43:39;7.70;;;4.50;;
82163;SDS011;71736;38.734;-9.138;2023-09-30T11:46:11;9.60;;;4.10;;
82163;SDS011;71736;38.734;-9.138;2023-09-30T11:48:40;8.30;;;4.90;;
82163;SDS011;71736;38.734;-9.138;2023-09-30T11:51:26;7.10;;;4.20;;
82163;SDS011;71736;38.734;-9.138;2023-09-30T11:53:53;9.80;;;4.60;;
82163;SDS011;71736;38.734;-9.138;2023-09-30T11:56:20;6.50;;;4.20;;
82163;SDS011;71736;38.734;-9.138;2023-09-30T11:58:47;7.90;;;3.90;;
82163;SDS011;71736;38.734;-9.138;2023-09-30T12:01:14;6.70;;;4.60;;
82163;SDS011;71736;38.734;-9.138;2023-09-30T12:03:39;11.30;;;4.90;;
82163;SDS011;71736;38.734;-9.138;2023-09-30T12:06:08;6.70;;;4.20;;
82163;SDS011;71736;38.734;-9.138;2023-09-30T12:08:39;8.20;;;5.20;;
82163;SDS011;71736;38.734;-9.138;2023-09-30T12:11:05;8.00;;;4.90;;
82163;SDS011;71736;38.734;-9.138;2023-09-30T12:13:31;8.70;;;4.30;;
82163;SDS011;71736;38.734;-9.138;2023-09-30T12:15:56;6.10;;;3.50;;
82163;SDS011;71736;38.734;-9.138;2023-09-30T12:18:22;7.90;;;4.60;;
82163;SDS011;71736;38.734;-9.138;2023-09-30T12:20:49;9.80;;;4.10;;
82163;SDS011;71736;38.734;-9.138;2023-09-30T12:23:17;8.30;;;4.00;;
82163;SDS011;71736;38.734;-9.138;2023-09-30T12:25:46;7.60;;;3.80;;
82163;SDS011;71736;38.734;-9.138;2023-09-30T12:30:39;7.10;;;3.60;;
82163;SDS011;71736;38.734;-9.138;2023-09-30T12:33:05;7.50;;;3.40;;
82163;SDS011;71736;38.734;-9.138;2023-09-30T12:35:32;8.00;;;4.70;;
82163;SDS011;71736;38.734;-9.138;2023-09-30T12:37:58;6.90;;;3.70;;
82163;SDS011;71736;38.734;-9.138;2023-09-30T12:40:24;5.50;;;3.50;;
82163;SDS011;71736;38.734;-9.138;2023-09-30T12:42:49;7.40;;;2.70;;
82163;SDS011;71736;38.734;-9.138;2023-09-30T12:45:15;5.90;;;2.50;;
82163;SDS011;71736;38.734;-9.138;2023-09-30T12:47:42;6.80;;;2.70;;
82163;SDS011;71736;38.734;-9.138;2023-09-30T12:50:08;7.70;;;3.30;;
82163;SDS011;71736;38.734;-9.138;2023-09-30T12:54:59;4.70;;;2.80;;
82163;SDS011;71736;38.734;-9.138;2023-09-30T12:57:25;5.70;;;3.40;;
82163;SDS011;71736;38.734;-9.138;2023-09-30T12:59:51;6.80;;;4.00;;
82163;SDS011;71736;38.734;-9.138;2023-09-30T13:02:16;5.10;;;2.50;;
82163;SDS011;71736;38.734;-9.138;2023-09-30T13:04:43;7.90;;;3.30;;
82163;SDS011;71736;38.734;-9.138;2023-09-30T13:07:10;5.90;;;3.50;;
82163;SDS011;71736;38.734;-9.138;2023-09-30T13:09:36;7.80;;;4.40;;
82163;SDS011;71736;38.734;-9.138;2023-09-30T13:12:06;7.70;;;3.60;;
82163;SDS011;71736;38.734;-9.138;2023-09-30T13:14:32;5.20;;;3.50;;
82163;SDS011;71736;38.734;-9.138;2023-09-30T13:19:23;6.00;;;4.10;;
82163;SDS011;71736;38.734;-9.138;2023-09-30T13:21:49;8.50;;;3.70;;
82163;SDS011;71736;38.734;-9.138;2023-09-30T13:24:16;5.50;;;3.00;;
82163;SDS011;71736;38.734;-9.138;2023-09-30T13:29:07;8.40;;;3.40;;
82163;SDS011;71736;38.734;-9.138;2023-09-30T13:31:35;6.90;;;3.20;;
82163;SDS011;71736;38.734;-9.138;2023-09-30T13:34:04;8.10;;;3.90;;
82163;SDS011;71736;38.734;-9.138;2023-09-30T13:36:31;7.10;;;3.90;;
82163;SDS011;71736;38.734;-9.138;2023-09-30T13:38:57;7.60;;;3.50;;
82163;SDS011;71736;38.734;-9.138;2023-09-30T13:41:22;10.20;;;4.40;;
82163;SDS011;71736;38.734;-9.138;2023-09-30T13:43:48;6.20;;;3.50;;
82163;SDS011;71736;38.734;-9.138;2023-09-30T13:46:13;6.20;;;3.60;;
82163;SDS011;71736;38.734;-9.138;2023-09-30T13:48:40;8.40;;;4.30;;
82163;SDS011;71736;38.734;-9.138;2023-09-30T13:51:06;7.10;;;3.40;;
82163;SDS011;71736;38.734;-9.138;2023-09-30T13:53:32;6.20;;;3.40;;
82163;SDS011;71736;38.734;-9.138;2023-09-30T13:55:57;11.30;;;8.00;;
82163;SDS011;71736;38.734;-9.138;2023-09-30T13:58:23;7.70;;;3.40;;
82163;SDS011;71736;38.734;-9.138;2023-09-30T14:00:49;7.50;;;3.50;;
82163;SDS011;71736;38.734;-9.138;2023-09-30T14:03:18;6.80;;;3.50;;
82163;SDS011;71736;38.734;-9.138;2023-09-30T14:05:44;4.80;;;3.40;;
82163;SDS011;71736;38.734;-9.138;2023-09-30T14:08:10;8.50;;;6.10;;
82163;SDS011;71736;38.734;-9.138;2023-09-30T14:10:37;7.50;;;3.80;;
82163;SDS011;71736;38.734;-9.138;2023-09-30T14:13:02;9.90;;;4.20;;
82163;SDS011;71736;38.734;-9.138;2023-09-30T14:17:58;8.10;;;3.80;;
82163;SDS011;71736;38.734;-9.138;2023-09-30T14:20:24;5.70;;;3.20;;
82163;SDS011;71736;38.734;-9.138;2023-09-30T14:22:50;7.90;;;4.20;;
82163;SDS011;71736;38.734;-9.138;2023-09-30T14:25:17;6.10;;;4.40;;
82163;SDS011;71736;38.734;-9.138;2023-09-30T14:27:43;6.60;;;3.70;;
82163;SDS011;71736;38.734;-9.138;2023-09-30T14:30:09;6.90;;;3.50;;
82163;SDS011;71736;38.734;-9.138;2023-09-30T14:32:35;8.70;;;3.70;;
82163;SDS011;71736;38.734;-9.138;2023-09-30T14:35:00;7.40;;;4.20;;
82163;SDS011;71736;38.734;-9.138;2023-09-30T14:37:26;8.70;;;4.40;;
82163;SDS011;71736;38.734;-9.138;2023-09-30T14:42:17;6.20;;;3.60;;
82163;SDS011;71736;38.734;-9.138;2023-09-30T14:44:43;10.70;;;4.00;;
82163;SDS011;71736;38.734;-9.138;2023-09-30T14:47:08;7.40;;;4.00;;
82163;SDS011;71736;38.734;-9.138;2023-09-30T14:49:34;6.90;;;3.90;;
82163;SDS011;71736;38.734;-9.138;2023-09-30T14:54:25;6.20;;;3.70;;
82163;SDS011;71736;38.734;-9.138;2023-09-30T14:56:51;8.90;;;3.50;;
82163;SDS011;71736;38.734;-9.138;2023-09-30T15:01:42;9.20;;;4.30;;
82163;SDS011;71736;38.734;-9.138;2023-09-30T15:04:08;7.00;;;5.20;;
82163;SDS011;71736;38.734;-9.138;2023-09-30T15:06:33;8.30;;;4.10;;
82163;SDS011;71736;38.734;-9.138;2023-09-30T15:09:02;6.40;;;4.10;;
82163;SDS011;71736;38.734;-9.138;2023-09-30T15:11:29;6.90;;;4.00;;
82163;SDS011;71736;38.734;-9.138;2023-09-30T15:13:55;5.00;;;3.30;;
82163;SDS011;71736;38.734;-9.138;2023-09-30T15:16:21;6.60;;;3.60;;
82163;SDS011;71736;38.734;-9.138;2023-09-30T15:18:47;6.70;;;3.40;;
82163;SDS011;71736;38.734;-9.138;2023-09-30T15:21:14;5.20;;;2.90;;
82163;SDS011;71736;38.734;-9.138;2023-09-30T15:23:41;4.80;;;3.20;;
82163;SDS011;71736;38.734;-9.138;2023-09-30T15:26:07;5.00;;;2.90;;
82163;SDS011;71736;38.734;-9.138;2023-09-30T15:28:33;5.90;;;3.20;;
82163;SDS011;71736;38.734;-9.138;2023-09-30T15:30:59;5.90;;;2.90;;
82163;SDS011;71736;38.734;-9.138;2023-09-30T15:33:26;7.80;;;3.20;;
82163;SDS011;71736;38.734;-9.138;2023-09-30T15:35:52;5.60;;;3.80;;
82163;SDS011;71736;38.734;-9.138;2023-09-30T15:38:18;5.70;;;3.60;;
82163;SDS011;71736;38.734;-9.138;2023-09-30T15:40:50;5.50;;;3.40;;
82163;SDS011;71736;38.734;-9.138;2023-09-30T15:43:18;5.20;;;2.70;;